Time;durP1;ratioP1;P1;durP2;ratioP2;P2;SDS_P1;SDS_P2;PMS_P1;PMS_P2;Temp;Humidity;BMP_temperature;BMP_pressure;BME280_temperature;BME280_humidity;BME280_pressure;Samples;Min_cycle;Max_cycle;Signal;HPM_P1;HPM_P2
2022/09/20 01:35:27;;;;;;;29.77;14.48;;;9.40;99.90;;;;;;1227696;27;20063;-86
2022/09/20 01:38:29;;;;;;;31.52;15.05;;;9.40;99.90;;;;;;4956638;28;20445;-87
2022/09/20 01:41:35;;;;;;;30.83;13.35;;;9.40;99.90;;;;;;4975796;28;20043;-87
2022/09/20 01:44:52;;;;;;;23.30;12.80;;;9.40;99.90;;;;;;4979572;28;20031;-86
2022/09/20 02:45:04;;;;;;;23.08;10.55;;;9.20;99.90;;;;;;6014143;23;20033;-85
2022/09/20 02:47:47;;;;;;;16.00;9.55;;;9.20;99.90;;;;;;4938326;29;20052;-84
2022/09/20 02:50:39;;;;;;;22.55;9.95;;;9.20;99.90;;;;;;4923666;29;20452;-86
2022/09/20 02:53:37;;;;;;;16.92;9.70;;;9.20;99.90;;;;;;4941124;29;20034;-86
2022/09/20 03:04:02;;;;;;;19.10;9.63;;;9.20;99.90;;;;;;4893046;29;20479;-86
2022/09/20 03:06:41;;;;;;;21.17;9.75;;;9.20;99.90;;;;;;4876090;29;20060;-84
2022/09/20 03:09:33;;;;;;;18.77;9.85;;;9.30;99.90;;;;;;4881684;29;20110;-85
2022/09/20 03:31:34;;;;;;;;;;;;;;;;;;;;;
2022/09/20 03:38:01;;;;;;;17.60;9.25;;;9.20;99.90;;;;;;4946155;29;20462;-86
2022/09/20 03:58:21;;;;;;;30.58;11.90;;;9.40;99.90;;;;;;4945208;29;20068;-84
2022/09/20 05:54:29;;;;;;;13.57;6.43;;;10.40;99.90;;;;;;4937250;29;20034;-86
2022/09/20 06:26:10;;;;;;;13.90;7.53;;;11.10;99.90;;;;;;4934507;29;20043;-83
2022/09/20 06:32:21;;;;;;;16.73;8.32;;;11.30;99.90;;;;;;4862553;29;20071;-83
2022/09/20 06:34:52;;;;;;;18.40;9.50;;;11.50;99.90;;;;;;4877876;29;20072;-86
2022/09/20 06:58:11;;;;;;;11.20;5.32;;;12.80;99.90;;;;;;4761579;30;20041;-85
2022/09/20 07:10:59;;;;;;;9.38;4.93;;;13.30;99.90;;;;;;4768627;30;20387;-83
2022/09/20 07:13:49;;;;;;;8.00;4.00;;;13.40;99.90;;;;;;4767994;30;20052;-84
2022/09/20 07:16:14;;;;;;;8.75;3.90;;;13.70;99.90;;;;;;4768298;30;20048;-83
2022/09/20 07:18:52;;;;;;;6.78;3.20;;;13.70;99.90;;;;;;4767804;30;20032;-84
2022/09/20 07:22:01;;;;;;;6.95;3.90;;;13.80;99.90;;;;;;4795347;29;20047;-86
2022/09/20 07:24:31;;;;;;;18.42;5.72;;;14.00;99.90;;;;;;4844597;29;20519;-83
2022/09/20 07:27:28;;;;;;;39.70;13.43;;;14.20;99.90;;;;;;4839915;29;20060;-85
2022/09/20 07:30:02;;;;;;;7.70;3.78;;;14.30;99.90;;;;;;4822072;29;20057;-83
2022/09/20 07:32:29;;;;;;;11.15;3.88;;;14.40;99.90;;;;;;4822219;29;20045;-82
2022/09/20 07:34:54;;;;;;;6.03;3.42;;;14.40;99.90;;;;;;4834090;29;20129;-83
2022/09/20 07:37:21;;;;;;;9.82;3.50;;;14.50;99.90;;;;;;4843175;29;20140;-82
2022/09/20 07:39:46;;;;;;;15.30;5.63;;;14.50;99.90;;;;;;4858571;29;20049;-83
2022/09/20 07:42:12;;;;;;;8.88;4.68;;;14.60;99.90;;;;;;4858668;29;20053;-84
2022/09/20 07:44:41;;;;;;;9.23;4.40;;;14.70;99.90;;;;;;4843239;29;20040;-83
2022/09/20 07:47:09;;;;;;;7.93;4.10;;;14.80;99.90;;;;;;4858265;29;20473;-82
2022/09/20 07:49:35;;;;;;;16.10;7.65;;;14.80;99.90;;;;;;4843170;29;20074;-82
2022/09/20 07:52:02;;;;;;;12.88;8.15;;;14.90;99.90;;;;;;4858463;29;20041;-82
2022/09/20 07:54:27;;;;;;;15.60;7.90;;;15.00;99.90;;;;;;4858553;29;20048;-83
2022/09/20 07:56:53;;;;;;;8.73;3.55;;;15.10;99.90;;;;;;4861668;29;20129;-81
2022/09/20 07:59:19;;;;;;;8.07;3.78;;;15.20;99.90;;;;;;4860326;29;20045;-81
2022/09/20 08:01:45;;;;;;;11.15;5.95;;;15.30;99.90;;;;;;4845012;29;20165;-81
2022/09/20 08:04:12;;;;;;;6.53;3.08;;;15.40;99.90;;;;;;4860020;29;20497;-81
2022/09/20 08:06:40;;;;;;;6.30;2.35;;;15.40;99.90;;;;;;4893531;29;20091;-84
2022/09/20 08:09:07;;;;;;;5.38;2.50;;;15.50;99.90;;;;;;4920086;29;20051;-82
2022/09/20 08:11:35;;;;;;;7.63;4.28;;;15.50;99.90;;;;;;4920087;29;20028;-81
2022/09/20 08:14:02;;;;;;;7.25;3.90;;;15.60;99.90;;;;;;4919385;29;20054;-81
2022/09/20 08:16:29;;;;;;;8.35;2.78;;;15.70;99.90;;;;;;4919844;29;20189;-82
2022/09/20 08:18:57;;;;;;;7.00;2.80;;;15.80;99.90;;;;;;4919938;29;20503;-81
2022/09/20 08:21:34;;;;;;;11.43;5.68;;;15.90;99.90;;;;;;4919937;29;20036;-82
2022/09/20 08:24:00;;;;;;;7.82;4.15;;;15.70;99.90;;;;;;4931814;29;20439;-82
2022/09/20 08:26:27;;;;;;;16.20;6.80;;;16.00;99.90;;;;;;4938607;29;20032;-83
2022/09/20 08:28:56;;;;;;;12.13;5.32;;;16.20;99.90;;;;;;4937410;29;20031;-82
2022/09/20 08:31:24;;;;;;;28.92;13.93;;;16.40;99.90;;;;;;4937638;29;20027;-81
2022/09/20 08:33:51;;;;;;;35.35;16.40;;;16.60;99.90;;;;;;4938476;29;20036;-84
2022/09/20 08:36:19;;;;;;;11.75;5.55;;;16.80;99.90;;;;;;4938383;29;20035;-83
2022/09/20 08:38:45;;;;;;;22.25;12.25;;;16.70;99.90;;;;;;4936981;29;20036;-83
2022/09/20 08:41:13;;;;;;;9.85;5.88;;;16.80;99.80;;;;;;4935850;29;20032;-82
2022/09/20 08:44:01;;;;;;;21.08;12.68;;;16.90;99.90;;;;;;4937575;29;20028;-84
2022/09/20 08:46:34;;;;;;;8.40;4.00;;;17.10;99.00;;;;;;4936505;29;20095;-83
2022/09/20 08:49:03;;;;;;;17.17;7.90;;;17.00;99.90;;;;;;4936795;29;20027;-81
2022/09/20 08:51:33;;;;;;;13.77;7.85;;;17.20;99.90;;;;;;4936870;29;20500;-82
2022/09/20 08:53:59;;;;;;;13.38;7.78;;;17.40;99.90;;;;;;4936918;29;20027;-81
2022/09/20 08:56:30;;;;;;;12.98;4.40;;;17.60;98.10;;;;;;4953107;29;20036;-84
2022/09/20 08:58:58;;;;;;;19.63;8.68;;;17.70;94.20;;;;;;4938513;29;20028;-83
2022/09/20 09:01:26;;;;;;;12.63;5.30;;;17.80;93.00;;;;;;4937916;29;20024;-81
2022/09/20 09:04:01;;;;;;;8.95;4.72;;;17.90;92.20;;;;;;4938001;29;20032;-83
2022/09/20 09:06:26;;;;;;;7.82;3.65;;;17.90;90.30;;;;;;4952616;28;20034;-83
2022/09/20 09:08:56;;;;;;;8.80;3.65;;;18.00;89.60;;;;;;4937980;29;20036;-82
2022/09/20 09:11:22;;;;;;;5.10;3.35;;;18.20;91.60;;;;;;4937581;29;20056;-81
2022/09/20 09:13:56;;;;;;;11.27;7.88;;;18.30;86.90;;;;;;4937731;29;20403;-83
2022/09/20 09:16:26;;;;;;;12.55;11.23;;;18.30;87.30;;;;;;4937832;29;20024;-82
2022/09/20 09:18:52;;;;;;;31.42;21.85;;;18.40;85.90;;;;;;4952413;29;20475;-85
2022/09/20 09:21:20;;;;;;;17.17;11.98;;;18.70;90.90;;;;;;4937673;29;20099;-83
2022/09/20 09:23:50;;;;;;;6.97;6.13;;;18.60;82.40;;;;;;4936369;29;20546;-82
2022/09/20 09:26:24;;;;;;;20.20;12.57;;;18.70;77.80;;;;;;4936121;29;20028;-82
2022/09/20 09:29:11;;;;;;;5.38;3.40;;;18.80;76.80;;;;;;4937679;29;20067;-83
2022/09/20 09:31:38;;;;;;;3.28;2.70;;;18.70;77.90;;;;;;4936288;29;20083;-84
2022/09/20 09:34:04;;;;;;;4.95;3.42;;;18.70;74.70;;;;;;4936526;29;20399;-83
2022/09/20 09:36:31;;;;;;;9.65;4.35;;;18.90;76.70;;;;;;4952287;29;20028;-81
2022/09/20 09:39:25;;;;;;;10.00;3.70;;;19.00;76.30;;;;;;4937039;29;20066;-82
2022/09/20 09:41:51;;;;;;;7.30;3.10;;;19.10;73.60;;;;;;4937625;29;20119;-83
2022/09/20 09:44:22;;;;;;;8.00;4.03;;;19.20;73.50;;;;;;4936139;29;20115;-80
2022/09/20 09:46:49;;;;;;;;;;;19.40;72.30;;;;;;4936342;29;20032;-83
2022/09/20 09:49:26;;;;;;;7.25;3.30;;;19.50;73.70;;;;;;4952063;29;19933;-84
2022/09/20 09:52:15;;;;;;;6.13;3.20;;;19.50;68.30;;;;;;4937437;29;20030;-80
2022/09/20 09:54:47;;;;;;;3.80;2.60;;;19.70;71.80;;;;;;4936939;29;20036;-84
2022/09/20 09:57:25;;;;;;;7.15;3.25;;;19.70;67.50;;;;;;4936017;29;20068;-82
2022/09/20 10:00:18;;;;;;;7.45;4.35;;;19.90;70.60;;;;;;4935888;29;20035;-81
2022/09/20 10:03:09;;;;;;;7.82;3.88;;;20.00;69.20;;;;;;4935289;29;20494;-84
2022/09/20 10:05:47;;;;;;;12.25;6.57;;;20.00;68.30;;;;;;4936067;29;20054;-83
2022/09/20 10:08:40;;;;;;;9.70;4.45;;;20.30;67.60;;;;;;4936952;29;20464;-84
2022/09/20 10:11:06;;;;;;;7.57;3.17;;;20.10;68.30;;;;;;4936744;29;20379;-82
2022/09/20 10:13:31;;;;;;;9.98;4.38;;;19.30;63.70;;;;;;4935824;29;20024;-82
2022/09/20 10:16:11;;;;;;;8.75;4.35;;;18.80;66.70;;;;;;4935512;29;20530;-82
2022/09/20 10:19:07;;;;;;;13.50;6.22;;;19.20;69.40;;;;;;4936649;29;20023;-83
2022/09/20 10:22:00;;;;;;;6.38;4.50;;;19.80;71.00;;;;;;4935050;29;20032;-84
2022/09/20 10:24:41;;;;;;;10.20;4.95;;;20.30;66.40;;;;;;4936467;29;20048;-80
2022/09/20 10:27:32;;;;;;;7.90;4.17;;;20.20;65.20;;;;;;4937297;29;20478;-82
2022/09/20 10:30:13;;;;;;;7.60;5.00;;;20.80;67.90;;;;;;4917939;29;20126;-81
2022/09/20 10:32:54;;;;;;;7.60;4.78;;;20.90;63.10;;;;;;4951378;29;20032;-83
2022/09/20 10:35:58;;;;;;;5.53;4.30;;;20.90;61.70;;;;;;4951558;29;20035;-83
2022/09/20 10:38:32;;;;;;;8.20;5.55;;;20.40;61.30;;;;;;4936273;29;20036;-80
2022/09/20 10:44:30;;;;;;;5.15;3.90;;;20.80;59.60;;;;;;4936711;29;20034;-81
2022/09/20 10:47:05;;;;;;;8.68;6.30;;;21.20;60.00;;;;;;4935223;29;20032;-82
2022/09/20 10:49:42;;;;;;;5.75;4.00;;;21.40;56.30;;;;;;4936524;29;20031;-82
2022/09/20 10:52:30;;;;;;;5.55;3.53;;;21.50;57.60;;;;;;4936455;29;20035;-84
2022/09/20 10:55:20;;;;;;;5.20;2.92;;;21.30;54.50;;;;;;4935362;29;20028;-83
2022/09/20 10:57:55;;;;;;;4.90;3.72;;;20.50;54.50;;;;;;4936091;29;20111;-81
2022/09/20 11:00:51;;;;;;;3.75;1.58;;;20.10;55.90;;;;;;4936480;29;20110;-85
2022/09/20 11:03:26;;;;;;;3.67;2.97;;;20.70;58.70;;;;;;4935721;29;20126;-82
2022/09/20 11:06:37;;;;;;;4.13;1.90;;;21.00;57.40;;;;;;4934653;29;20122;-83
2022/09/20 11:09:08;;;;;;;3.88;3.17;;;20.50;55.40;;;;;;4916499;29;20040;-82
2022/09/20 11:11:41;;;;;;;6.00;2.80;;;20.10;56.20;;;;;;4936291;29;20063;-82
2022/09/20 11:14:34;;;;;;;6.70;3.67;;;19.40;56.50;;;;;;4936672;29;20066;-80
2022/09/20 11:17:22;;;;;;;6.20;4.50;;;19.10;60.00;;;;;;4954429;28;20055;-83
2022/09/20 11:19:59;;;;;;;14.13;7.18;;;18.70;59.90;;;;;;4917688;29;20027;-81
2022/09/20 11:22:38;;;;;;;10.80;5.80;;;18.40;61.20;;;;;;4924589;29;20356;-81
2022/09/20 11:25:14;;;;;;;12.35;6.82;;;18.20;61.50;;;;;;4941640;29;20027;-80
2022/09/20 11:27:57;;;;;;;8.25;4.95;;;18.60;63.30;;;;;;4935555;29;20550;-82
2022/09/20 11:30:23;;;;;;;4.65;2.80;;;19.10;63.00;;;;;;4946731;29;20058;-81
2022/09/20 11:32:52;;;;;;;11.35;6.35;;;19.00;63.70;;;;;;4948796;28;20479;-81
2022/09/20 11:35:26;;;;;;;8.63;4.90;;;18.70;60.30;;;;;;4960885;28;20034;-80
2022/09/20 11:38:30;;;;;;;12.82;6.50;;;18.50;63.60;;;;;;4962004;28;20391;-82
2022/09/20 11:41:18;;;;;;;11.05;3.42;;;18.20;62.90;;;;;;4948983;29;20028;-84
2022/09/20 11:43:45;;;;;;;12.65;5.88;;;19.20;62.80;;;;;;4954614;29;20072;-84
2022/09/20 11:46:20;;;;;;;6.43;4.07;;;19.90;61.70;;;;;;4939348;29;20039;-85
2022/09/20 11:49:03;;;;;;;8.07;4.05;;;19.60;57.70;;;;;;4954389;29;20111;-84
2022/09/20 11:51:48;;;;;;;13.40;4.07;;;20.10;58.40;;;;;;4940767;29;20095;-85
2022/09/20 11:54:27;;;;;;;5.07;3.30;;;19.80;59.60;;;;;;4962540;28;20408;-86
2022/09/20 11:56:58;;;;;;;7.40;3.70;;;19.50;59.40;;;;;;4953964;29;20462;-82
2022/09/20 11:59:41;;;;;;;6.75;4.35;;;20.10;59.30;;;;;;4939237;29;20535;-83
2022/09/20 12:02:31;;;;;;;3.55;2.83;;;20.80;56.40;;;;;;4954331;29;20063;-82
2022/09/20 12:04:57;;;;;;;3.15;2.20;;;21.30;54.90;;;;;;4953841;29;20028;-84
2022/09/20 12:07:36;;;;;;;4.68;2.67;;;21.30;53.90;;;;;;4953801;29;20118;-83
2022/09/20 12:10:22;;;;;;;7.57;2.50;;;20.70;54.40;;;;;;4939207;29;20063;-87
2022/09/20 12:12:54;;;;;;;8.32;3.53;;;20.10;55.00;;;;;;4939327;29;20023;-89
2022/09/20 12:15:20;;;;;;;7.60;2.80;;;19.60;55.20;;;;;;4953762;29;20024;-86
2022/09/20 12:18:01;;;;;;;7.25;2.75;;;19.20;57.30;;;;;;4953809;29;20038;-86
2022/09/20 12:20:41;;;;;;;7.05;2.78;;;18.80;57.40;;;;;;4953389;28;20035;-86
2022/09/20 12:23:38;;;;;;;7.18;2.75;;;18.50;60.50;;;;;;4939020;29;20044;-86
2022/09/20 12:26:05;;;;;;;5.63;2.53;;;19.00;60.80;;;;;;4953899;29;20356;-85
2022/09/20 12:28:35;;;;;;;6.35;3.00;;;19.70;59.60;;;;;;4938874;29;20032;-86
2022/09/20 12:31:25;;;;;;;6.90;2.88;;;20.40;58.10;;;;;;4937537;29;20386;-84
2022/09/20 12:34:23;;;;;;;5.63;1.90;;;21.00;53.50;;;;;;4961745;28;20463;-84
2022/09/20 12:36:54;;;;;;;7.93;2.40;;;21.40;50.50;;;;;;4951818;29;20037;-86
2022/09/20 12:39:23;;;;;;;;;;;21.70;48.70;;;;;;4967603;28;20146;-85
2022/09/20 12:41:51;;;;;;;5.95;3.80;;;;;;;;;;4946465;28;19910;-84
2022/09/20 12:44:53;;;;;;;6.70;4.95;;;22.00;49.50;;;;;;4964765;28;20381;-83
2022/09/20 12:47:23;;;;;;;16.73;10.52;;;22.00;48.90;;;;;;4941261;29;20502;-84
2022/09/20 12:52:56;;;;;;;6.25;5.15;;;21.50;48.70;;;;;;4948630;29;20086;-87
2022/09/20 12:55:35;;;;;;;13.35;5.38;;;21.80;49.50;;;;;;4949689;29;20391;-86
2022/09/20 12:58:16;;;;;;;9.70;2.95;;;21.70;48.20;;;;;;4949773;28;20023;-87
2022/09/20 13:01:03;;;;;;;8.63;3.25;;;21.40;52.00;;;;;;4947880;28;20070;-86
2022/09/20 13:03:38;;;;;;;9.40;2.50;;;21.10;49.80;;;;;;4965390;28;20114;-85
2022/09/20 13:06:07;;;;;;;4.32;1.60;;;21.50;51.50;;;;;;4962108;28;20133;-86
2022/09/20 13:09:00;;;;;;;5.85;3.10;;;21.30;50.00;;;;;;4958007;28;20031;-84
2022/09/20 13:11:46;;;;;;;4.40;2.17;;;20.90;47.90;;;;;;4963877;28;20031;-85
2022/09/20 13:14:28;;;;;;;3.97;1.30;;;21.30;51.10;;;;;;4937863;29;20039;-84
2022/09/20 13:17:12;;;;;;;3.50;1.55;;;21.30;47.90;;;;;;4937927;29;20036;-85
2022/09/20 13:19:43;;;;;;;3.15;1.98;;;21.20;50.40;;;;;;4952694;29;20024;-82
2022/09/20 13:22:27;;;;;;;2.72;1.80;;;21.20;48.50;;;;;;4936761;29;20103;-86
2022/09/20 13:24:58;;;;;;;1.83;1.45;;;21.00;48.30;;;;;;4953251;28;20051;-85
2022/09/20 13:27:36;;;;;;;2.35;1.90;;;20.50;49.40;;;;;;4949266;28;20099;-86
2022/09/20 13:30:24;;;;;;;7.05;1.80;;;20.30;49.60;;;;;;4948833;29;20163;-84
2022/09/20 13:32:50;;;;;;;4.07;2.22;;;20.10;50.90;;;;;;4968071;28;20035;-82
2022/09/20 13:35:31;;;;;;;3.90;2.70;;;19.90;49.80;;;;;;4959787;28;20028;-87
2022/09/20 13:38:03;;;;;;;4.90;2.20;;;20.00;49.90;;;;;;4963531;28;20035;-85
2022/09/20 13:40:43;;;;;;;11.82;4.32;;;20.20;52.00;;;;;;4955970;28;20399;-83
2022/09/20 13:43:48;;;;;;;10.13;3.50;;;20.60;50.00;;;;;;4959567;28;20034;-84
2022/09/20 13:46:22;;;;;;;14.02;8.98;;;20.50;50.10;;;;;;4956967;28;20048;-87
2022/09/20 13:48:57;;;;;;;4.00;3.30;;;20.40;50.90;;;;;;4962256;28;20031;-84
2022/09/20 13:51:27;;;;;;;5.43;2.47;;;20.10;50.70;;;;;;4944210;29;20075;-85
2022/09/20 13:54:13;;;;;;;4.60;1.90;;;19.90;52.80;;;;;;4947396;28;20023;-84
2022/09/20 13:56:39;;;;;;;4.18;2.08;;;19.40;52.90;;;;;;4946285;29;20042;-85
2022/09/20 13:59:16;;;;;;;5.43;2.00;;;19.20;55.50;;;;;;4962176;28;20034;-84
2022/09/20 14:01:54;;;;;;;4.57;1.95;;;19.10;54.40;;;;;;4961948;28;20023;-86
2022/09/20 14:04:43;;;;;;;;;;;;;;;;;;;;;
2022/09/20 14:14:29;;;;;;;4.35;2.22;;;18.50;57.20;;;;;;4881845;29;20027;-85
2022/09/20 14:24:34;;;;;;;4.35;1.88;;;18.20;62.20;;;;;;4896067;29;20067;-86
2022/09/20 14:28:07;;;;;;;;;;;;;;;;;;;;;
2022/09/20 14:30:45;;;;;;;9.00;2.67;;;17.80;62.80;;;;;;4891970;29;20051;-85
2022/09/20 14:33:19;;;;;;;5.47;2.28;;;17.60;64.80;;;;;;4883153;29;20449;-85
2022/09/20 14:35:55;;;;;;;25.27;9.25;;;17.40;65.30;;;;;;4890872;29;20044;-85
2022/09/20 14:38:25;;;;;;;4.38;2.55;;;17.40;65.70;;;;;;4883810;29;20045;-85
2022/09/20 14:40:51;;;;;;;8.60;3.25;;;17.50;65.70;;;;;;4884335;29;20064;-87
2022/09/20 14:43:24;;;;;;;13.13;7.07;;;17.50;65.60;;;;;;4889749;29;20573;-86
2022/09/20 14:45:55;;;;;;;16.02;7.20;;;17.60;65.30;;;;;;4886812;29;20086;-87
2022/09/20 14:48:21;;;;;;;7.90;2.50;;;17.40;67.10;;;;;;4887429;29;20431;-85
2022/09/20 14:51:10;;;;;;;5.07;1.80;;;17.30;67.50;;;;;;4870460;29;20037;-86
2022/09/20 14:53:37;;;;;;;5.20;2.53;;;17.10;67.40;;;;;;4883764;29;20161;-86
2022/09/20 14:56:08;;;;;;;5.32;2.42;;;16.90;70.70;;;;;;4895399;29;20475;-86
2022/09/20 14:59:19;;;;;;;3.70;1.80;;;16.80;71.00;;;;;;4959354;28;20058;-85
2022/09/20 15:02:14;;;;;;;21.23;11.15;;;16.70;72.00;;;;;;4944054;29;20055;-86
2022/09/20 15:04:50;;;;;;;21.15;10.07;;;16.60;74.70;;;;;;4948853;28;20032;-84
2022/09/20 15:07:16;;;;;;;11.48;4.90;;;16.50;75.70;;;;;;4965023;28;20043;-87
2022/09/20 15:09:42;;;;;;;7.38;3.67;;;16.40;73.80;;;;;;4966272;28;20035;-86
2022/09/20 15:12:18;;;;;;;89.43;50.00;;;16.40;75.30;;;;;;4949904;28;20115;-86
2022/09/20 15:14:45;;;;;;;21.45;11.00;;;16.30;78.60;;;;;;4964600;28;20086;-85
2022/09/20 15:17:17;;;;;;;8.68;2.38;;;16.20;80.30;;;;;;4955102;28;20186;-87
2022/09/20 15:19:44;;;;;;;6.45;2.28;;;16.20;80.80;;;;;;4974121;28;20034;-86
2022/09/20 15:22:10;;;;;;;6.97;2.90;;;16.20;78.00;;;;;;4959152;28;20042;-84
2022/09/20 15:24:36;;;;;;;7.90;3.03;;;16.20;74.70;;;;;;4957407;28;20595;-86
2022/09/20 15:27:03;;;;;;;15.13;4.50;;;16.10;72.30;;;;;;4957078;29;20035;-84
2022/09/20 15:29:29;;;;;;;9.00;4.18;;;16.10;73.80;;;;;;4958674;29;20196;-84
2022/09/20 15:31:55;;;;;;;15.23;7.93;;;16.10;72.50;;;;;;4973996;28;20038;-86
2022/09/20 15:34:21;;;;;;;25.92;8.43;;;16.00;73.60;;;;;;4958750;28;20098;-87
2022/09/20 15:36:47;;;;;;;14.60;7.10;;;16.00;76.60;;;;;;4971207;28;20173;-86
2022/09/20 15:39:13;;;;;;;10.75;4.40;;;15.90;76.40;;;;;;4951214;28;20054;-84
2022/09/20 15:41:39;;;;;;;7.65;3.08;;;15.80;81.50;;;;;;4948421;28;20472;-86
2022/09/20 15:44:06;;;;;;;7.22;2.55;;;15.60;89.30;;;;;;4957953;28;20027;-86
2022/09/20 15:46:35;;;;;;;12.85;5.88;;;15.50;94.30;;;;;;4945450;29;20059;-84
2022/09/20 15:49:04;;;;;;;12.45;6.28;;;15.30;99.90;;;;;;4953939;28;20478;-86
2022/09/20 15:51:38;;;;;;;10.27;4.90;;;15.20;99.90;;;;;;4973395;28;20035;-85
2022/09/20 15:54:06;;;;;;;7.65;3.38;;;15.10;99.90;;;;;;4958244;28;20035;-83
2022/09/20 15:56:35;;;;;;;6.03;3.00;;;14.90;99.90;;;;;;4954327;29;20040;-85
2022/09/20 15:59:03;;;;;;;5.28;2.60;;;14.80;99.90;;;;;;4954244;28;20063;-86
2022/09/20 16:01:41;;;;;;;7.53;2.30;;;14.70;99.90;;;;;;4953798;28;20074;-86
2022/09/20 16:04:17;;;;;;;5.05;2.80;;;14.80;99.90;;;;;;4954153;29;20034;-86
2022/09/20 16:06:45;;;;;;;9.10;3.42;;;14.80;99.90;;;;;;4953999;29;20439;-86
2022/09/20 16:09:11;;;;;;;6.80;3.97;;;14.80;99.90;;;;;;4939232;29;20035;-86
2022/09/20 16:11:37;;;;;;;5.20;2.70;;;14.80;99.90;;;;;;4939014;29;20047;-84
2022/09/20 16:14:04;;;;;;;3.70;2.40;;;14.80;99.90;;;;;;4953856;29;20479;-84
2022/09/20 16:16:31;;;;;;;6.03;2.30;;;14.90;99.90;;;;;;4952931;28;20032;-84
2022/09/20 16:19:16;;;;;;;4.38;2.47;;;15.00;99.90;;;;;;4938983;29;20035;-85
2022/09/20 16:21:48;;;;;;;8.75;2.47;;;15.00;99.90;;;;;;4939316;29;20087;-87
2022/09/20 16:24:15;;;;;;;9.18;3.35;;;15.00;99.90;;;;;;4953755;29;20052;-87
2022/09/20 16:26:42;;;;;;;8.05;3.75;;;15.00;99.90;;;;;;4938704;29;20032;-87
2022/09/20 16:29:25;;;;;;;;;;;;;;;;;;;;;
2022/09/20 16:31:53;;;;;;;17.02;7.25;;;14.90;99.90;;;;;;4938034;29;20027;-86
2022/09/20 16:34:56;;;;;;;23.27;8.15;;;14.80;99.90;;;;;;4938793;29;20070;-88
2022/09/20 16:40:21;;;;;;;61.85;31.05;;;14.70;99.90;;;;;;4916381;29;20484;-87
2022/09/20 16:42:46;;;;;;;50.20;26.27;;;14.60;99.90;;;;;;4927258;29;20038;-87
2022/09/20 16:45:14;;;;;;;58.15;30.98;;;14.60;99.90;;;;;;4935222;29;20460;-86
2022/09/20 16:47:40;;;;;;;65.63;32.13;;;14.60;99.90;;;;;;4916805;29;20036;-86
2022/09/20 16:50:47;;;;;;;34.13;21.45;;;14.60;99.90;;;;;;4917004;29;20039;-86
2022/09/20 16:53:13;;;;;;;30.67;18.05;;;14.50;99.90;;;;;;4917091;29;20396;-85
2022/09/20 16:55:46;;;;;;;23.13;13.50;;;14.50;99.90;;;;;;4917023;29;20032;-86
2022/09/20 16:58:12;;;;;;;21.45;11.02;;;14.40;99.90;;;;;;4916963;29;20101;-87
2022/09/20 17:00:45;;;;;;;21.77;10.38;;;14.30;99.90;;;;;;4916707;29;20059;-87
2022/09/20 17:03:25;;;;;;;23.38;9.38;;;14.30;99.90;;;;;;4916692;29;20471;-86
2022/09/20 17:09:14;;;;;;;20.40;9.10;;;14.30;99.90;;;;;;4896870;29;20093;-86
2022/09/20 17:19:04;;;;;;;13.70;5.15;;;14.10;99.90;;;;;;4839054;29;20090;-86
2022/09/20 17:28:32;;;;;;;20.50;9.73;;;13.80;99.90;;;;;;4784971;29;20043;-87
2022/09/20 17:37:55;;;;;;;23.87;13.63;;;13.60;99.90;;;;;;4739347;30;20082;-86
2022/09/20 17:44:12;;;;;;;18.83;11.50;;;13.60;99.90;;;;;;4751462;30;20107;-86
2022/09/20 17:46:40;;;;;;;30.17;13.20;;;13.70;99.90;;;;;;4751180;30;20443;-88
2022/09/20 17:49:13;;;;;;;27.13;15.30;;;13.60;99.90;;;;;;4751071;30;20044;-88
2022/09/20 17:51:53;;;;;;;36.72;17.10;;;13.70;99.90;;;;;;4756222;30;20401;-87
2022/09/20 17:54:23;;;;;;;44.47;19.45;;;13.80;99.90;;;;;;4794351;29;20046;-91
2022/09/20 17:56:58;;;;;;;64.20;30.33;;;13.80;99.90;;;;;;4821073;29;20039;-88
2022/09/20 18:00:06;;;;;;;97.50;45.38;;;13.80;99.90;;;;;;4823374;29;20137;-88
2022/09/20 18:16:55;;;;;;;11.80;7.10;;;13.00;99.90;;;;;;4857967;29;20033;-87
2022/09/20 18:20:06;;;;;;;10.18;5.80;;;12.90;99.90;;;;;;4869483;29;20448;-87
2022/09/20 18:23:03;;;;;;;22.75;11.13;;;12.70;99.90;;;;;;4912986;29;20071;-88
2022/09/20 18:29:30;;;;;;;;;;;;;;;;;;;;;
2022/09/20 18:31:58;;;;;;;28.83;14.45;;;12.50;99.90;;;;;;4877176;29;20537;-86
2022/09/20 18:34:29;;;;;;;33.13;18.20;;;12.40;99.90;;;;;;4860850;29;20052;-85
2022/09/20 18:36:57;;;;;;;21.67;13.23;;;12.40;99.90;;;;;;4877389;29;20045;-86
2022/09/20 18:39:27;;;;;;;25.00;12.30;;;12.30;99.90;;;;;;4877041;29;20068;-86
2022/09/20 18:41:53;;;;;;;26.35;13.50;;;12.30;99.90;;;;;;4861932;29;20041;-84
2022/09/20 18:44:21;;;;;;;32.65;18.50;;;12.20;99.90;;;;;;4877734;29;20087;-84
2022/09/20 18:46:47;;;;;;;26.45;15.13;;;12.20;99.90;;;;;;4877389;29;20065;-84
2022/09/20 18:49:15;;;;;;;32.58;15.88;;;12.20;99.90;;;;;;4877718;29;20037;-84
2022/09/20 18:51:42;;;;;;;38.47;17.13;;;12.20;99.90;;;;;;4877247;29;20037;-87
2022/09/20 18:54:09;;;;;;;41.33;19.30;;;12.10;99.90;;;;;;4877447;29;20083;-87
2022/09/20 18:56:37;;;;;;;47.72;21.50;;;12.10;99.90;;;;;;4862075;29;20044;-85
2022/09/20 18:59:05;;;;;;;33.35;17.55;;;12.10;99.90;;;;;;4876546;29;20030;-88
2022/09/20 19:01:57;;;;;;;36.65;18.63;;;12.00;99.90;;;;;;4861282;29;20045;-87
2022/09/20 19:04:48;;;;;;;35.17;20.70;;;11.90;99.90;;;;;;4875598;29;20037;-87
2022/09/20 19:07:26;;;;;;;25.23;12.40;;;11.90;99.90;;;;;;4899644;29;20049;-88
2022/09/20 19:10:10;;;;;;;22.42;11.85;;;12.00;99.90;;;;;;4915851;29;20024;-88
2022/09/20 19:13:00;;;;;;;16.00;9.80;;;12.00;99.90;;;;;;4926569;29;20024;-88
2022/09/20 19:15:50;;;;;;;18.00;7.38;;;12.00;99.90;;;;;;4950852;29;20379;-86
2022/09/20 19:18:47;;;;;;;17.95;8.85;;;11.90;99.90;;;;;;4935906;29;20479;-85
2022/09/20 19:21:19;;;;;;;19.48;10.38;;;11.90;99.90;;;;;;4934731;29;20056;-86
2022/09/20 19:24:00;;;;;;;;;;;12.00;99.90;;;;;;4936000;29;20024;-85
2022/09/20 19:26:30;;;;;;;17.73;7.47;;;11.90;99.90;;;;;;4935764;29;19990;-87
2022/09/20 19:28:59;;;;;;;13.50;6.75;;;12.00;99.90;;;;;;4950543;29;20032;-87
2022/09/20 19:31:30;;;;;;;12.98;7.25;;;11.90;99.90;;;;;;4934433;29;20028;-86
2022/09/20 19:33:58;;;;;;;11.48;5.85;;;11.90;99.90;;;;;;4934168;29;20090;-86
2022/09/20 19:37:00;;;;;;;27.77;10.82;;;11.90;99.90;;;;;;4953714;28;20046;-86
2022/09/20 19:39:49;;;;;;;9.88;6.25;;;11.80;99.90;;;;;;4917188;29;20066;-88
2022/09/20 19:42:52;;;;;;;;;;;;;;;;;;;;;
2022/09/20 19:45:51;;;;;;;12.98;7.70;;;11.70;99.90;;;;;;4932174;29;20431;-88
2022/09/20 19:48:50;;;;;;;13.35;8.27;;;11.60;99.90;;;;;;4920216;29;20037;-88
2022/09/20 19:55:02;;;;;;;7.72;5.07;;;11.50;99.90;;;;;;4843047;29;20042;-86
2022/09/20 19:57:59;;;;;;;13.43;5.43;;;11.50;99.90;;;;;;4843855;29;20057;-87
2022/09/20 20:01:06;;;;;;;13.80;5.75;;;11.40;99.90;;;;;;4839582;29;20082;-87
2022/09/20 20:07:26;;;;;;;21.88;12.38;;;11.40;99.90;;;;;;4849787;29;20203;-86
2022/09/20 20:10:21;;;;;;;28.77;15.88;;;11.40;99.90;;;;;;4835928;29;20056;-87
2022/09/20 20:17:29;;;;;;;;;;;;;;;;;;;;;
2022/09/20 20:24:13;;;;;;;;;;;;;;;;;;;;;
2022/09/20 20:26:49;;;;;;;;;;;;;;;;;;;;;
2022/09/20 20:33:27;;;;;;;14.93;7.95;;;11.30;99.90;;;;;;4861063;29;20040;-87
2022/09/20 20:36:46;;;;;;;15.23;8.98;;;11.20;99.90;;;;;;4805033;29;20047;-86
2022/09/20 20:39:05;;;;;;;19.33;10.13;;;11.20;99.90;;;;;;4805753;29;20518;-85
2022/09/20 20:41:31;;;;;;;16.23;7.78;;;11.20;99.90;;;;;;4805978;29;20078;-84
2022/09/20 20:43:57;;;;;;;17.55;9.38;;;11.20;99.90;;;;;;4806060;29;20074;-86
2022/09/20 20:46:23;;;;;;;18.40;9.45;;;11.20;99.90;;;;;;4805876;29;20530;-85
2022/09/20 20:48:49;;;;;;;27.90;11.85;;;11.20;99.90;;;;;;4805958;29;20076;-87
2022/09/20 20:52:07;;;;;;;;;;;;;;;;;;;;;
2022/09/20 20:54:59;;;;;;;18.90;10.15;;;11.20;99.90;;;;;;4805613;29;20132;-86
2022/09/20 21:08:15;;;;;;;14.85;6.53;;;11.20;99.90;;;;;;4804950;29;20719;-87
2022/09/20 21:11:02;;;;;;;13.88;6.55;;;11.20;99.90;;;;;;4805252;29;20114;-88
2022/09/20 21:16:50;;;;;;;14.10;6.22;;;11.30;99.90;;;;;;4942243;29;20086;-85
2022/09/20 21:19:17;;;;;;;12.45;5.90;;;11.30;99.90;;;;;;4954327;28;20459;-84
2022/09/20 21:21:47;;;;;;;9.93;4.63;;;11.30;99.90;;;;;;4952475;29;20534;-88
2022/09/20 21:24:16;;;;;;;10.43;5.13;;;11.30;99.90;;;;;;4952412;29;20058;-86
2022/09/20 21:26:46;;;;;;;8.93;4.72;;;11.30;99.90;;;;;;4951853;29;21167;-85
2022/09/20 21:29:42;;;;;;;;;;;;;;;;;;;;;
2022/09/20 21:32:15;;;;;;;10.75;5.65;;;11.30;99.90;;;;;;4897290;29;20041;-86
2022/09/20 21:34:41;;;;;;;12.55;6.47;;;11.30;99.90;;;;;;4886562;29;20037;-85
2022/09/20 21:37:35;;;;;;;9.32;5.57;;;11.30;99.90;;;;;;4878755;29;20119;-85
2022/09/20 21:44:06;;;;;;;10.43;5.43;;;11.30;99.90;;;;;;4877698;29;20073;-86
2022/09/20 21:47:35;;;;;;;10.90;5.00;;;11.40;99.90;;;;;;4839484;29;20044;-87
2022/09/20 21:50:27;;;;;;;;;;;;;;;;;;;;;
2022/09/20 21:53:36;;;;;;;;;;;;;;;;;;;;;